Time;durP1;ratioP1;P1;durP2;ratioP2;P2;SDS_P1;SDS_P2;PMS_P1;PMS_P2;Temp;Humidity;BMP_temperature;BMP_pressure;BME280_temperature;BME280_humidity;BME280_pressure;Samples;Min_cycle;Max_cycle;Signal;HPM_P1;HPM_P2
2023/07/23 00:01:51;;;;;;;11.70;5.60;;;;;;;;;;5021829;28;20412;-64
2023/07/23 00:04:17;;;;;;;14.90;6.03;;;;;;;;;;5022333;28;20029;-64
2023/07/23 00:06:43;;;;;;;12.23;5.28;;;;;;;;;;5020629;28;20045;-65
2023/07/23 00:09:10;;;;;;;12.95;5.80;;;;;;;;;;5020514;28;20033;-64
2023/07/23 00:11:36;;;;;;;12.57;5.28;;;;;;;;;;5021963;28;20116;-65
2023/07/23 00:14:02;;;;;;;10.73;5.30;;;;;;;;;;5022322;28;20044;-64
2023/07/23 00:16:28;;;;;;;10.93;5.43;;;;;;;;;;5020938;28;20033;-65
2023/07/23 00:18:54;;;;;;;11.40;6.00;;;;;;;;;;5022540;28;20143;-65
2023/07/23 00:21:20;;;;;;;11.48;4.97;;;;;;;;;;5021693;28;20737;-64
2023/07/23 00:23:46;;;;;;;12.80;4.93;;;;;;;;;;5022380;28;20469;-65
2023/07/23 00:26:12;;;;;;;10.18;5.47;;;;;;;;;;5022292;28;21112;-64
2023/07/23 00:28:38;;;;;;;10.68;5.50;;;;;;;;;;5022745;28;20175;-64
2023/07/23 00:31:05;;;;;;;13.00;5.13;;;;;;;;;;5022347;28;21069;-64
2023/07/23 00:33:31;;;;;;;8.43;5.10;;;;;;;;;;5020485;28;20362;-64
2023/07/23 00:35:57;;;;;;;10.35;5.50;;;;;;;;;;5022022;28;21003;-64
2023/07/23 00:38:23;;;;;;;10.05;4.93;;;;;;;;;;5020569;28;20050;-64
2023/07/23 00:40:49;;;;;;;11.02;5.50;;;;;;;;;;5021643;28;20056;-64
2023/07/23 00:43:15;;;;;;;10.90;5.32;;;;;;;;;;5022084;28;20078;-64
2023/07/23 00:45:41;;;;;;;9.13;5.10;;;;;;;;;;5021105;28;20040;-64
2023/07/23 00:48:07;;;;;;;12.68;5.88;;;;;;;;;;5021542;28;20037;-64
2023/07/23 00:50:33;;;;;;;11.55;4.78;;;;;;;;;;5021363;28;20029;-64
2023/07/23 00:52:59;;;;;;;9.98;5.68;;;;;;;;;;5021285;28;20504;-63
2023/07/23 00:55:26;;;;;;;11.07;5.32;;;;;;;;;;5020662;28;20544;-64
2023/07/23 00:57:53;;;;;;;8.02;4.72;;;;;;;;;;5021470;28;20051;-64
2023/07/23 01:00:19;;;;;;;10.32;6.15;;;;;;;;;;5020992;28;20526;-64
2023/07/23 01:02:45;;;;;;;9.68;5.25;;;;;;;;;;5021145;28;20993;-64
2023/07/23 01:05:11;;;;;;;9.98;5.70;;;;;;;;;;5021348;28;20044;-64
2023/07/23 01:07:37;;;;;;;11.17;6.27;;;;;;;;;;5020726;28;20026;-64
2023/07/23 01:10:04;;;;;;;10.18;5.82;;;;;;;;;;5021189;28;20326;-64
2023/07/23 01:12:31;;;;;;;12.10;5.70;;;;;;;;;;5020504;28;20037;-64
2023/07/23 01:14:57;;;;;;;10.25;5.57;;;;;;;;;;5020692;28;20039;-64
2023/07/23 01:17:24;;;;;;;10.18;5.88;;;;;;;;;;5021392;28;20096;-64
2023/07/23 01:20:03;;;;;;;10.55;5.30;;;;;;;;;;5021638;28;20564;-64
2023/07/23 01:22:29;;;;;;;10.18;5.43;;;;;;;;;;5020769;28;20028;-64
2023/07/23 01:24:55;;;;;;;12.95;6.70;;;;;;;;;;5020774;28;20033;-64
2023/07/23 01:27:21;;;;;;;9.77;5.53;;;;;;;;;;5020836;28;20485;-64
2023/07/23 01:29:47;;;;;;;10.63;5.80;;;;;;;;;;5020696;28;20485;-64
2023/07/23 01:32:13;;;;;;;8.57;5.22;;;;;;;;;;5021571;28;20041;-64
2023/07/23 01:34:39;;;;;;;10.52;5.30;;;;;;;;;;5020488;28;20048;-64
2023/07/23 01:37:05;;;;;;;9.48;5.60;;;;;;;;;;5020694;28;20124;-64
2023/07/23 01:39:32;;;;;;;8.95;5.05;;;;;;;;;;5021059;28;20045;-64
2023/07/23 01:41:58;;;;;;;9.00;5.43;;;;;;;;;;5020314;28;20065;-64
2023/07/23 01:44:25;;;;;;;10.38;5.47;;;;;;;;;;5021005;28;20036;-64
2023/07/23 01:46:51;;;;;;;10.20;5.07;;;;;;;;;;5020315;28;20041;-64
2023/07/23 01:49:17;;;;;;;8.90;5.05;;;;;;;;;;5022466;28;20037;-64
2023/07/23 01:51:43;;;;;;;8.98;4.90;;;;;;;;;;5024669;28;20044;-64
2023/07/23 01:54:09;;;;;;;9.60;4.75;;;;;;;;;;5025190;28;20118;-64
2023/07/23 01:56:35;;;;;;;10.05;4.32;;;;;;;;;;5025013;28;20045;-64
2023/07/23 01:59:01;;;;;;;8.30;4.78;;;;;;;;;;5024858;28;20091;-64
2023/07/23 02:01:29;;;;;;;9.80;5.28;;;;;;;;;;5024604;28;20056;-64
2023/07/23 02:03:55;;;;;;;9.00;4.72;;;;;;;;;;5031399;28;20531;-64
2023/07/23 02:06:21;;;;;;;9.52;4.78;;;;;;;;;;5024182;28;20060;-64
2023/07/23 02:08:47;;;;;;;10.77;5.03;;;;;;;;;;5024330;28;20079;-64
2023/07/23 02:11:13;;;;;;;8.93;5.43;;;;;;;;;;5023424;28;20033;-64
2023/07/23 02:13:39;;;;;;;8.35;4.63;;;;;;;;;;5023105;28;20026;-64
2023/07/23 02:16:05;;;;;;;10.15;5.20;;;;;;;;;;5024512;28;20032;-64
2023/07/23 02:18:32;;;;;;;9.63;5.13;;;;;;;;;;5023646;28;20044;-63
2023/07/23 02:20:58;;;;;;;8.52;4.90;;;;;;;;;;5024911;28;20025;-64
2023/07/23 02:23:24;;;;;;;9.32;5.05;;;;;;;;;;5024936;28;20033;-64
2023/07/23 02:25:50;;;;;;;9.70;4.50;;;;;;;;;;5023466;28;20029;-63
2023/07/23 02:28:17;;;;;;;10.70;5.40;;;;;;;;;;5024950;28;20045;-64
2023/07/23 02:30:43;;;;;;;10.55;5.55;;;;;;;;;;5024967;28;20194;-65
2023/07/23 02:33:09;;;;;;;10.57;5.63;;;;;;;;;;5023594;28;20039;-64
2023/07/23 02:35:38;;;;;;;8.75;4.88;;;;;;;;;;5024698;28;20040;-65
2023/07/23 02:38:05;;;;;;;10.68;4.72;;;;;;;;;;5024687;28;20029;-64
2023/07/23 02:40:34;;;;;;;9.55;5.47;;;;;;;;;;5024453;28;21662;-64
2023/07/23 02:43:01;;;;;;;10.52;5.25;;;;;;;;;;5023249;28;20842;-64
2023/07/23 02:45:27;;;;;;;11.93;5.25;;;;;;;;;;5024738;28;20044;-64
2023/07/23 02:47:53;;;;;;;10.27;4.70;;;;;;;;;;5023184;28;20656;-64
2023/07/23 02:50:19;;;;;;;8.02;4.85;;;;;;;;;;5023981;28;20493;-64
2023/07/23 02:52:46;;;;;;;8.88;5.30;;;;;;;;;;5024887;28;20021;-63
2023/07/23 02:55:12;;;;;;;11.98;4.93;;;;;;;;;;5023530;28;20111;-63
2023/07/23 02:57:38;;;;;;;11.32;5.10;;;;;;;;;;5022731;28;20110;-64
2023/07/23 03:00:04;;;;;;;9.52;5.78;;;;;;;;;;5022678;28;20493;-65
2023/07/23 03:02:30;;;;;;;11.40;4.95;;;;;;;;;;5022728;28;20029;-65
2023/07/23 03:04:56;;;;;;;10.38;4.40;;;;;;;;;;5023054;28;20033;-64
2023/07/23 03:07:23;;;;;;;11.75;5.25;;;;;;;;;;5023016;28;20510;-64
2023/07/23 03:09:49;;;;;;;8.27;4.68;;;;;;;;;;5023627;28;20037;-64
2023/07/23 03:12:15;;;;;;;9.25;4.60;;;;;;;;;;5026875;28;20033;-64
2023/07/23 03:14:41;;;;;;;8.00;4.65;;;;;;;;;;5023728;28;20029;-64
2023/07/23 03:17:07;;;;;;;11.35;5.53;;;;;;;;;;5024237;28;20026;-64
2023/07/23 03:19:33;;;;;;;9.38;4.53;;;;;;;;;;5023389;28;20473;-64
2023/07/23 03:21:59;;;;;;;8.88;5.13;;;;;;;;;;5023832;28;21002;-64
2023/07/23 03:24:25;;;;;;;7.85;4.80;;;;;;;;;;5022889;28;20041;-64
2023/07/23 03:26:51;;;;;;;8.43;4.95;;;;;;;;;;5023876;28;20094;-65
2023/07/23 03:29:17;;;;;;;11.23;5.45;;;;;;;;;;5023728;28;20079;-64
2023/07/23 03:31:43;;;;;;;8.23;5.18;;;;;;;;;;5023730;28;20056;-65
2023/07/23 03:34:09;;;;;;;9.43;5.28;;;;;;;;;;5023192;28;20843;-64
2023/07/23 03:36:35;;;;;;;9.63;4.53;;;;;;;;;;5022142;28;20034;-64
2023/07/23 03:39:01;;;;;;;9.43;5.28;;;;;;;;;;5022262;28;20037;-64
2023/07/23 03:41:27;;;;;;;10.10;5.40;;;;;;;;;;5022950;28;20037;-64
2023/07/23 03:43:53;;;;;;;10.82;5.47;;;;;;;;;;5022845;28;20428;-64
2023/07/23 03:46:19;;;;;;;8.73;5.03;;;;;;;;;;5023308;28;20029;-64
2023/07/23 03:48:47;;;;;;;11.90;6.30;;;;;;;;;;5022431;28;20046;-64
2023/07/23 03:51:14;;;;;;;10.75;6.25;;;;;;;;;;5022482;28;21298;-64
2023/07/23 03:53:40;;;;;;;9.80;5.45;;;;;;;;;;5023266;28;20205;-64
2023/07/23 03:56:07;;;;;;;11.07;5.07;;;;;;;;;;5022465;28;20072;-64
2023/07/23 03:58:33;;;;;;;13.35;5.65;;;;;;;;;;5022351;28;20158;-64
2023/07/23 04:00:59;;;;;;;10.10;6.03;;;;;;;;;;5022679;28;20059;-64
2023/07/23 04:03:25;;;;;;;12.52;6.00;;;;;;;;;;5023006;28;20044;-65
2023/07/23 04:05:51;;;;;;;10.68;6.07;;;;;;;;;;5019819;28;20481;-65
2023/07/23 04:08:17;;;;;;;9.10;5.63;;;;;;;;;;5022298;28;20741;-64
2023/07/23 04:10:43;;;;;;;10.07;5.35;;;;;;;;;;5023259;28;20033;-65
2023/07/23 04:13:09;;;;;;;9.80;6.10;;;;;;;;;;5020840;28;20116;-64
2023/07/23 04:15:38;;;;;;;8.80;5.78;;;;;;;;;;5022325;28;20108;-65
2023/07/23 04:18:11;;;;;;;10.32;6.07;;;;;;;;;;5022311;28;20856;-64
2023/07/23 04:20:37;;;;;;;11.45;5.55;;;;;;;;;;5021830;28;20686;-64
2023/07/23 04:23:03;;;;;;;11.18;5.47;;;;;;;;;;5022631;28;20568;-64
2023/07/23 04:25:29;;;;;;;11.02;5.85;;;;;;;;;;5020961;28;20396;-64
2023/07/23 04:27:56;;;;;;;11.40;5.78;;;;;;;;;;5022321;28;20029;-64
2023/07/23 04:30:22;;;;;;;8.60;5.38;;;;;;;;;;5022455;28;20036;-64
2023/07/23 04:32:48;;;;;;;8.35;4.47;;;;;;;;;;5022439;28;20084;-64
2023/07/23 04:35:14;;;;;;;10.50;5.80;;;;;;;;;;5021989;28;20107;-63
2023/07/23 04:37:40;;;;;;;12.05;6.07;;;;;;;;;;5022418;28;20468;-64
2023/07/23 04:40:09;;;;;;;9.90;5.53;;;;;;;;;;5022468;28;20047;-64
2023/07/23 04:42:35;;;;;;;11.85;6.20;;;;;;;;;;5022320;28;20056;-64
2023/07/23 04:45:01;;;;;;;14.15;6.05;;;;;;;;;;5021985;28;20037;-64
2023/07/23 04:47:27;;;;;;;13.32;6.53;;;;;;;;;;5022619;28;20754;-64
2023/07/23 04:49:53;;;;;;;16.77;6.65;;;;;;;;;;5019727;28;20048;-64
2023/07/23 04:52:19;;;;;;;11.02;6.43;;;;;;;;;;5022695;28;20112;-64
2023/07/23 04:54:45;;;;;;;9.57;5.45;;;;;;;;;;5022129;28;20065;-64
2023/07/23 04:57:11;;;;;;;13.00;6.03;;;;;;;;;;5021061;28;20607;-64
2023/07/23 04:59:37;;;;;;;11.73;6.53;;;;;;;;;;5020653;28;20758;-64
2023/07/23 05:02:03;;;;;;;10.18;5.97;;;;;;;;;;5020469;28;20108;-64
2023/07/23 05:04:29;;;;;;;12.85;6.15;;;;;;;;;;5020766;28;21864;-65
2023/07/23 05:06:59;;;;;;;8.55;5.47;;;;;;;;;;5020775;28;20045;-64
2023/07/23 05:09:25;;;;;;;9.35;6.30;;;;;;;;;;5020938;28;20042;-64
2023/07/23 05:11:51;;;;;;;12.80;6.32;;;;;;;;;;5022138;28;20071;-64
2023/07/23 05:14:17;;;;;;;10.32;5.72;;;;;;;;;;5021261;28;20029;-64
2023/07/23 05:16:43;;;;;;;10.88;6.10;;;;;;;;;;5021587;28;20466;-64
2023/07/23 05:19:10;;;;;;;8.68;5.55;;;;;;;;;;5022586;28;20044;-64
2023/07/23 05:21:36;;;;;;;8.55;5.47;;;;;;;;;;5022101;28;20052;-64
2023/07/23 05:24:03;;;;;;;10.70;6.03;;;;;;;;;;5021038;28;20143;-64
2023/07/23 05:26:29;;;;;;;11.15;6.05;;;;;;;;;;5021965;28;20072;-64
2023/07/23 05:28:55;;;;;;;9.48;5.50;;;;;;;;;;5021454;28;20072;-64
2023/07/23 05:31:21;;;;;;;10.75;6.10;;;;;;;;;;5021024;28;20158;-64
2023/07/23 05:33:47;;;;;;;10.27;6.35;;;;;;;;;;5020848;28;20048;-64
2023/07/23 05:36:13;;;;;;;11.18;6.10;;;;;;;;;;5020639;28;20037;-64
2023/07/23 05:38:39;;;;;;;10.25;6.13;;;;;;;;;;5020972;28;20091;-64
2023/07/23 05:41:05;;;;;;;10.75;6.32;;;;;;;;;;5021138;28;20800;-64
2023/07/23 05:43:31;;;;;;;9.10;6.03;;;;;;;;;;5020712;28;20574;-64
2023/07/23 05:45:58;;;;;;;15.23;7.45;;;;;;;;;;5021157;28;20036;-64
2023/07/23 05:48:24;;;;;;;10.82;6.40;;;;;;;;;;5021062;28;20044;-63
2023/07/23 05:50:50;;;;;;;11.82;6.80;;;;;;;;;;5021345;28;20033;-64
2023/07/23 05:53:16;;;;;;;12.35;6.97;;;;;;;;;;5016599;28;20769;-63
2023/07/23 05:55:42;;;;;;;11.55;6.75;;;;;;;;;;5014625;28;20044;-63
2023/07/23 05:58:08;;;;;;;10.73;6.30;;;;;;;;;;5015582;28;20041;-64
2023/07/23 06:00:34;;;;;;;14.88;7.47;;;;;;;;;;5015469;28;20045;-64
2023/07/23 06:03:00;;;;;;;11.52;7.15;;;;;;;;;;5015164;28;20029;-64
2023/07/23 06:05:26;;;;;;;12.25;7.25;;;;;;;;;;5014992;28;20040;-64
2023/07/23 06:07:52;;;;;;;10.38;7.03;;;;;;;;;;5014282;28;20029;-64
2023/07/23 06:10:18;;;;;;;14.27;7.60;;;;;;;;;;5014007;28;20041;-64
2023/07/23 06:12:44;;;;;;;12.63;7.38;;;;;;;;;;5013942;28;20029;-64
2023/07/23 06:15:10;;;;;;;12.30;7.53;;;;;;;;;;5015190;28;20111;-64
2023/07/23 06:17:37;;;;;;;13.52;7.35;;;;;;;;;;5014975;28;20124;-64
2023/07/23 06:20:03;;;;;;;13.25;7.35;;;;;;;;;;5014733;28;20048;-64
2023/07/23 06:22:29;;;;;;;12.95;7.93;;;;;;;;;;5014639;28;20029;-64
2023/07/23 06:24:55;;;;;;;12.50;7.28;;;;;;;;;;5015042;28;20034;-64
2023/07/23 06:27:21;;;;;;;12.75;8.15;;;;;;;;;;5013524;28;20037;-64
2023/07/23 06:29:47;;;;;;;13.52;8.10;;;;;;;;;;5015134;28;20034;-65
2023/07/23 06:32:13;;;;;;;11.95;7.32;;;;;;;;;;5014865;28;20080;-64
2023/07/23 06:34:39;;;;;;;15.82;7.80;;;;;;;;;;5014496;28;20041;-64
2023/07/23 06:37:05;;;;;;;13.63;7.43;;;;;;;;;;5018544;28;20029;-65
2023/07/23 06:39:31;;;;;;;10.13;7.28;;;;;;;;;;5017683;28;20057;-64
2023/07/23 06:41:57;;;;;;;15.50;8.55;;;;;;;;;;5017034;28;20065;-64
2023/07/23 06:44:23;;;;;;;11.73;7.60;;;;;;;;;;5018378;28;20053;-64
2023/07/23 06:46:50;;;;;;;12.82;8.10;;;;;;;;;;5018312;28;20047;-65
2023/07/23 06:49:17;;;;;;;13.30;8.25;;;;;;;;;;5018410;28;20128;-64
2023/07/23 06:51:43;;;;;;;15.05;8.32;;;;;;;;;;5017180;28;20033;-64
2023/07/23 06:54:09;;;;;;;11.93;7.82;;;;;;;;;;5016478;28;20025;-63
2023/07/23 06:56:35;;;;;;;14.55;7.65;;;;;;;;;;5018123;28;20063;-63
2023/07/23 06:59:01;;;;;;;12.32;7.68;;;;;;;;;;5016685;28;20057;-63
2023/07/23 07:01:27;;;;;;;15.30;8.15;;;;;;;;;;5015497;28;21287;-64
2023/07/23 07:03:55;;;;;;;11.98;7.75;;;;;;;;;;5015869;28;20087;-63
2023/07/23 07:06:21;;;;;;;11.73;7.60;;;;;;;;;;5016023;28;20082;-63
2023/07/23 07:08:47;;;;;;;14.25;7.88;;;;;;;;;;5014976;28;20041;-63
2023/07/23 07:11:13;;;;;;;12.60;8.77;;;;;;;;;;5013620;28;20037;-64
2023/07/23 07:13:39;;;;;;;14.50;7.93;;;;;;;;;;5016791;28;20033;-64
2023/07/23 07:16:05;;;;;;;13.82;8.27;;;;;;;;;;5017530;28;20034;-64
2023/07/23 07:18:31;;;;;;;15.25;9.25;;;;;;;;;;5016768;28;20547;-64
2023/07/23 07:20:58;;;;;;;15.95;8.23;;;;;;;;;;5017155;28;21301;-64
2023/07/23 07:23:25;;;;;;;13.60;8.05;;;;;;;;;;5017486;28;20124;-64
2023/07/23 07:25:51;;;;;;;16.13;9.13;;;;;;;;;;5019213;28;20039;-64
2023/07/23 07:28:17;;;;;;;18.10;8.82;;;;;;;;;;5016804;28;20036;-63
2023/07/23 07:30:46;;;;;;;15.98;9.35;;;;;;;;;;5016556;28;20041;-64
2023/07/23 07:33:12;;;;;;;15.60;8.20;;;;;;;;;;5016454;28;20044;-64
2023/07/23 07:35:38;;;;;;;16.73;8.88;;;;;;;;;;5017208;28;20061;-64
2023/07/23 07:38:04;;;;;;;17.40;8.85;;;;;;;;;;5016646;28;20609;-64
2023/07/23 07:40:31;;;;;;;15.80;9.23;;;;;;;;;;5016045;28;20464;-64
2023/07/23 07:42:57;;;;;;;20.60;10.05;;;;;;;;;;5014917;28;20075;-64
2023/07/23 07:45:23;;;;;;;21.77;9.80;;;;;;;;;;5004986;28;20052;-64
2023/07/23 07:47:49;;;;;;;17.35;8.93;;;;;;;;;;5015946;28;20029;-64
2023/07/23 07:50:16;;;;;;;18.50;9.57;;;;;;;;;;5016041;28;20126;-64
2023/07/23 07:52:42;;;;;;;16.15;9.05;;;;;;;;;;5015747;28;20029;-63
2023/07/23 07:55:08;;;;;;;16.73;9.70;;;;;;;;;;5015842;28;20017;-64
2023/07/23 07:57:34;;;;;;;15.65;8.27;;;;;;;;;;5015981;28;20676;-64
2023/07/23 08:00:06;;;;;;;16.27;9.00;;;;;;;;;;5016075;28;20119;-65
2023/07/23 08:02:33;;;;;;;19.88;10.63;;;;;;;;;;5014681;28;20021;-65
2023/07/23 08:04:59;;;;;;;19.63;10.35;;;;;;;;;;5014138;28;20465;-65
2023/07/23 08:07:25;;;;;;;18.02;10.25;;;;;;;;;;5015714;28;20037;-65
2023/07/23 08:09:53;;;;;;;19.23;9.88;;;;;;;;;;5014892;28;20640;-65
2023/07/23 08:12:20;;;;;;;18.83;10.48;;;;;;;;;;5015489;28;20033;-64
2023/07/23 08:14:46;;;;;;;20.73;10.90;;;;;;;;;;5016012;28;20034;-64
2023/07/23 08:17:13;;;;;;;16.33;9.02;;;;;;;;;;5014859;28;20383;-64
2023/07/23 08:19:39;;;;;;;15.05;9.70;;;;;;;;;;5015548;28;20463;-64
2023/07/23 08:22:05;;;;;;;18.00;10.32;;;;;;;;;;5015471;28;20037;-64
2023/07/23 08:24:32;;;;;;;15.63;9.65;;;;;;;;;;5014932;28;20095;-65
2023/07/23 08:27:01;;;;;;;14.20;9.35;;;;;;;;;;5013975;28;20030;-64
2023/07/23 08:29:28;;;;;;;14.40;9.30;;;;;;;;;;5015530;28;20642;-64
2023/07/23 08:31:56;;;;;;;18.70;10.15;;;;;;;;;;5015114;28;21238;-64
2023/07/23 08:34:22;;;;;;;17.98;11.10;;;;;;;;;;5014654;28;20021;-64
2023/07/23 08:36:49;;;;;;;15.75;10.38;;;;;;;;;;5015039;28;20029;-64
2023/07/23 08:39:15;;;;;;;17.08;11.02;;;;;;;;;;5015370;28;20111;-64
2023/07/23 08:41:41;;;;;;;19.70;12.07;;;;;;;;;;5014195;28;20056;-64
2023/07/23 08:44:26;;;;;;;19.17;12.30;;;;;;;;;;5014684;28;20044;-64
2023/07/23 08:46:58;;;;;;;17.45;12.18;;;;;;;;;;5015610;28;20237;-64
2023/07/23 08:49:25;;;;;;;20.63;11.95;;;;;;;;;;5015335;28;20167;-64
2023/07/23 08:51:51;;;;;;;15.90;11.57;;;;;;;;;;5015147;28;20029;-64
2023/07/23 08:54:19;;;;;;;18.77;11.43;;;;;;;;;;5013941;28;20606;-64
2023/07/23 08:56:45;;;;;;;18.40;10.98;;;;;;;;;;5014734;28;20029;-64
2023/07/23 08:59:12;;;;;;;17.40;10.82;;;;;;;;;;5014056;28;20525;-64
2023/07/23 09:01:39;;;;;;;18.85;12.18;;;;;;;;;;5013242;28;20037;-64
2023/07/23 09:04:06;;;;;;;14.68;10.15;;;;;;;;;;5010260;28;20063;-64
2023/07/23 09:06:33;;;;;;;16.25;10.75;;;;;;;;;;5013582;28;20034;-64
2023/07/23 09:09:03;;;;;;;16.83;10.85;;;;;;;;;;5012925;28;20029;-64
2023/07/23 09:11:29;;;;;;;17.40;10.77;;;;;;;;;;5012485;28;20207;-64
2023/07/23 09:13:59;;;;;;;14.50;11.10;;;;;;;;;;5014543;28;20134;-63
2023/07/23 09:16:25;;;;;;;16.25;11.40;;;;;;;;;;5014487;28;20111;-63
2023/07/23 09:18:52;;;;;;;17.65;10.77;;;;;;;;;;5014763;28;20037;-64
2023/07/23 09:21:24;;;;;;;16.55;10.57;;;;;;;;;;5014176;28;20630;-64
2023/07/23 09:23:51;;;;;;;17.02;11.57;;;;;;;;;;5014668;28;20041;-64
2023/07/23 09:26:22;;;;;;;16.80;10.82;;;;;;;;;;5014110;28;20033;-64
2023/07/23 09:28:50;;;;;;;15.43;10.75;;;;;;;;;;5014234;28;20033;-65
2023/07/23 09:31:21;;;;;;;21.10;10.63;;;;;;;;;;5014284;28;20029;-64
2023/07/23 09:33:47;;;;;;;16.23;9.60;;;;;;;;;;5014605;28;20033;-64
2023/07/23 09:36:13;;;;;;;15.82;10.23;;;;;;;;;;5014525;28;20044;-64
2023/07/23 09:38:45;;;;;;;14.85;10.55;;;;;;;;;;5014622;28;20147;-64
2023/07/23 09:41:11;;;;;;;14.18;9.50;;;;;;;;;;5011675;28;20037;-64
2023/07/23 09:43:39;;;;;;;13.52;9.48;;;;;;;;;;5012348;28;20053;-64
2023/07/23 09:46:05;;;;;;;14.68;9.82;;;;;;;;;;5015115;28;20025;-64
2023/07/23 09:48:32;;;;;;;15.70;10.05;;;;;;;;;;5014625;28;20040;-65
2023/07/23 09:50:58;;;;;;;14.88;10.13;;;;;;;;;;5014985;28;20798;-64
2023/07/23 09:53:29;;;;;;;15.30;10.20;;;;;;;;;;5013150;28;21910;-64
2023/07/23 09:55:56;;;;;;;15.35;10.60;;;;;;;;;;5013913;28;20029;-64
2023/07/23 09:58:23;;;;;;;18.00;10.75;;;;;;;;;;5014701;28;20068;-64
2023/07/23 10:00:50;;;;;;;14.70;10.38;;;;;;;;;;5013645;28;20037;-64
2023/07/23 10:03:17;;;;;;;16.70;10.73;;;;;;;;;;5014461;28;20033;-64
2023/07/23 10:05:43;;;;;;;16.52;10.07;;;;;;;;;;5013425;28;21841;-64
2023/07/23 10:08:10;;;;;;;16.15;10.20;;;;;;;;;;5014061;28;20637;-64
2023/07/23 10:10:36;;;;;;;15.65;10.60;;;;;;;;;;5014901;28;20464;-64
2023/07/23 10:13:02;;;;;;;17.10;10.30;;;;;;;;;;5018304;28;20036;-64
2023/07/23 10:15:29;;;;;;;13.88;9.70;;;;;;;;;;5019142;28;20120;-64
2023/07/23 10:18:00;;;;;;;16.67;9.35;;;;;;;;;;5015764;28;20074;-64
2023/07/23 10:20:27;;;;;;;14.98;10.02;;;;;;;;;;5018113;28;20029;-64
2023/07/23 10:22:53;;;;;;;15.25;10.15;;;;;;;;;;5017862;28;20042;-64
2023/07/23 10:25:23;;;;;;;17.10;9.80;;;;;;;;;;5017160;28;20049;-64
2023/07/23 10:27:57;;;;;;;14.90;10.07;;;;;;;;;;5018373;28;20037;-64
2023/07/23 10:30:24;;;;;;;18.25;9.93;;;;;;;;;;5016546;28;20083;-64
2023/07/23 10:33:08;;;;;;;16.25;9.57;;;;;;;;;;5017471;28;20056;-64
2023/07/23 10:35:49;;;;;;;19.00;9.90;;;;;;;;;;5017473;28;20036;-64
2023/07/23 10:38:23;;;;;;;14.20;9.73;;;;;;;;;;5018046;28;20036;-64
2023/07/23 10:40:49;;;;;;;16.58;10.50;;;;;;;;;;5016917;28;20033;-64
2023/07/23 10:43:16;;;;;;;14.68;9.85;;;;;;;;;;5017912;28;20099;-64
2023/07/23 10:45:49;;;;;;;18.90;11.02;;;;;;;;;;5017352;28;20038;-64
2023/07/23 10:48:17;;;;;;;17.98;10.63;;;;;;;;;;5017660;28;21982;-65
2023/07/23 10:51:00;;;;;;;20.48;9.98;;;;;;;;;;5015490;28;20037;-64
2023/07/23 10:53:31;;;;;;;15.38;9.90;;;;;;;;;;5015371;28;20032;-64
2023/07/23 10:55:59;;;;;;;15.45;9.20;;;;;;;;;;5016931;28;20041;-64
2023/07/23 10:58:26;;;;;;;14.63;9.85;;;;;;;;;;5017589;28;20033;-64
2023/07/23 11:00:56;;;;;;;16.35;10.40;;;;;;;;;;5015479;28;20029;-64
2023/07/23 11:03:23;;;;;;;16.02;9.60;;;;;;;;;;5015116;28;20088;-64
2023/07/23 11:05:50;;;;;;;13.18;8.75;;;;;;;;;;5016049;28;20029;-64
2023/07/23 11:08:30;;;;;;;13.73;9.85;;;;;;;;;;5017380;28;20056;-64
2023/07/23 11:10:56;;;;;;;15.82;9.70;;;;;;;;;;5016605;28;20074;-64
2023/07/23 11:13:23;;;;;;;15.90;9.52;;;;;;;;;;5016989;28;20572;-63
2023/07/23 11:15:49;;;;;;;18.05;10.32;;;;;;;;;;5015706;28;20035;-63
2023/07/23 11:18:15;;;;;;;16.67;9.98;;;;;;;;;;5028978;28;20031;-63
2023/07/23 11:21:03;;;;;;;16.67;9.88;;;;;;;;;;5009255;28;20030;-63
2023/07/23 11:23:29;;;;;;;14.88;9.80;;;;;;;;;;5009875;28;20021;-63
2023/07/23 11:25:55;;;;;;;17.63;10.80;;;;;;;;;;5009994;28;20036;-63
2023/07/23 11:28:22;;;;;;;16.48;10.05;;;;;;;;;;5009344;28;21099;-63
2023/07/23 11:30:50;;;;;;;18.52;10.05;;;;;;;;;;5009054;28;20106;-63
2023/07/23 11:33:16;;;;;;;13.93;9.32;;;;;;;;;;5009236;28;22208;-63
2023/07/23 11:35:42;;;;;;;15.02;9.70;;;;;;;;;;5008754;28;20064;-63
2023/07/23 11:38:08;;;;;;;15.30;9.35;;;;;;;;;;5009095;28;20041;-63
2023/07/23 11:40:35;;;;;;;16.55;9.90;;;;;;;;;;5009020;28;21632;-63
2023/07/23 11:43:05;;;;;;;16.20;8.77;;;;;;;;;;5008333;28;20087;-63
2023/07/23 11:45:31;;;;;;;13.93;8.65;;;;;;;;;;5008691;28;20112;-63
2023/07/23 11:47:57;;;;;;;14.93;9.90;;;;;;;;;;5009512;28;20744;-63
2023/07/23 11:50:24;;;;;;;13.82;9.00;;;;;;;;;;5008339;28;20988;-63
2023/07/23 11:52:51;;;;;;;12.45;8.70;;;;;;;;;;5008243;28;20116;-63
2023/07/23 11:55:27;;;;;;;12.93;8.77;;;;;;;;;;5009430;28;20045;-63
2023/07/23 11:57:57;;;;;;;13.55;9.00;;;;;;;;;;5009213;28;20039;-63
2023/07/23 12:00:25;;;;;;;13.15;8.63;;;;;;;;;;5008096;28;20126;-63
2023/07/23 12:02:51;;;;;;;14.20;8.52;;;;;;;;;;5007722;28;20033;-63
2023/07/23 12:05:18;;;;;;;14.20;8.60;;;;;;;;;;5009264;28;20037;-64
2023/07/23 12:07:44;;;;;;;14.57;8.48;;;;;;;;;;5008571;28;20539;-63
2023/07/23 12:10:14;;;;;;;12.68;8.55;;;;;;;;;;5008942;28;20168;-63
2023/07/23 12:12:40;;;;;;;16.50;8.98;;;;;;;;;;5009973;28;20370;-63
2023/07/23 12:15:06;;;;;;;15.60;8.00;;;;;;;;;;5010101;28;20513;-63
2023/07/23 12:17:35;;;;;;;13.07;8.02;;;;;;;;;;5008513;28;20056;-63
2023/07/23 12:20:03;;;;;;;11.40;8.05;;;;;;;;;;5010253;28;20045;-63
2023/07/23 12:22:31;;;;;;;15.95;9.18;;;;;;;;;;5009860;28;20588;-63
2023/07/23 12:24:57;;;;;;;12.75;8.65;;;;;;;;;;5009511;28;20147;-63
2023/07/23 12:27:23;;;;;;;11.02;7.43;;;;;;;;;;5007210;28;20110;-63
2023/07/23 12:29:51;;;;;;;13.38;7.75;;;;;;;;;;5008772;28;20096;-63
2023/07/23 12:32:21;;;;;;;13.38;7.43;;;;;;;;;;5008095;28;20041;-63
2023/07/23 12:34:48;;;;;;;15.63;8.27;;;;;;;;;;5007754;28;20040;-63
2023/07/23 12:37:16;;;;;;;14.50;7.60;;;;;;;;;;5009710;28;20025;-63
2023/07/23 12:39:42;;;;;;;11.35;7.47;;;;;;;;;;5009089;28;20124;-63
2023/07/23 12:42:10;;;;;;;12.52;8.68;;;;;;;;;;5008956;28;20035;-63
2023/07/23 12:44:36;;;;;;;10.18;7.22;;;;;;;;;;5008884;28;20037;-63
2023/07/23 12:47:02;;;;;;;12.88;8.32;;;;;;;;;;5009019;28;20044;-63
2023/07/23 12:49:28;;;;;;;13.43;8.15;;;;;;;;;;5008476;28;20041;-63
2023/07/23 12:51:54;;;;;;;10.90;7.68;;;;;;;;;;5007680;28;20033;-63
2023/07/23 12:54:20;;;;;;;14.48;7.90;;;;;;;;;;5008604;28;20025;-63
2023/07/23 12:56:46;;;;;;;11.27;8.30;;;;;;;;;;5009623;28;20029;-63
2023/07/23 12:59:15;;;;;;;11.00;8.13;;;;;;;;;;5009599;28;20175;-63
2023/07/23 13:01:41;;;;;;;10.52;7.30;;;;;;;;;;5008642;28;20033;-63
2023/07/23 13:04:07;;;;;;;15.07;7.80;;;;;;;;;;5006620;28;20716;-63
2023/07/23 13:06:33;;;;;;;13.02;7.80;;;;;;;;;;5005575;28;20481;-63
2023/07/23 13:08:59;;;;;;;11.52;7.15;;;;;;;;;;5005350;28;20041;-63
2023/07/23 13:11:25;;;;;;;10.55;6.53;;;;;;;;;;5006933;28;21251;-63
2023/07/23 13:13:51;;;;;;;9.98;7.13;;;;;;;;;;5007024;28;20068;-63
2023/07/23 13:16:17;;;;;;;12.02;7.80;;;;;;;;;;5006134;28;20034;-63
2023/07/23 13:18:44;;;;;;;11.52;8.32;;;;;;;;;;5008045;28;20037;-63
2023/07/23 13:21:10;;;;;;;10.68;8.00;;;;;;;;;;5008467;28;20593;-63
2023/07/23 13:23:36;;;;;;;12.45;9.07;;;;;;;;;;5009024;28;20037;-63
2023/07/23 13:26:02;;;;;;;12.20;8.93;;;;;;;;;;5007803;28;20060;-63
2023/07/23 13:28:28;;;;;;;12.05;9.90;;;;;;;;;;5006871;28;20041;-63
2023/07/23 13:30:55;;;;;;;13.27;10.80;;;;;;;;;;5007991;28;20124;-63
2023/07/23 13:33:21;;;;;;;15.82;11.82;;;;;;;;;;5008228;28;20029;-63
2023/07/23 13:35:53;;;;;;;16.02;11.65;;;;;;;;;;5007950;28;20910;-63
2023/07/23 13:38:20;;;;;;;15.10;12.43;;;;;;;;;;5008352;28;20049;-63
2023/07/23 13:40:46;;;;;;;17.85;12.95;;;;;;;;;;5006597;28;20067;-63
2023/07/23 13:43:12;;;;;;;17.00;12.45;;;;;;;;;;5007097;28;20025;-63
2023/07/23 13:45:38;;;;;;;19.33;13.88;;;;;;;;;;5010414;28;20049;-63
2023/07/23 13:48:07;;;;;;;22.27;13.15;;;;;;;;;;5011771;28;20068;-63
2023/07/23 13:50:33;;;;;;;17.70;13.30;;;;;;;;;;5011541;28;20052;-63
2023/07/23 13:52:59;;;;;;;15.75;12.40;;;;;;;;;;5009913;28;20052;-63
2023/07/23 13:55:25;;;;;;;16.35;12.30;;;;;;;;;;5009887;28;20033;-63
2023/07/23 13:57:51;;;;;;;19.02;12.40;;;;;;;;;;5009012;28;20034;-63
2023/07/23 14:00:18;;;;;;;14.63;11.52;;;;;;;;;;5010025;28;20041;-63
2023/07/23 14:02:44;;;;;;;16.52;12.25;;;;;;;;;;5009366;28;20107;-63
2023/07/23 14:05:10;;;;;;;15.38;10.93;;;;;;;;;;5011177;28;22015;-63
2023/07/23 14:07:37;;;;;;;14.27;11.57;;;;;;;;;;5010818;28;20033;-62
2023/07/23 14:10:03;;;;;;;12.57;9.18;;;;;;;;;;5009672;28;20152;-63
2023/07/23 14:12:29;;;;;;;12.73;10.00;;;;;;;;;;5009546;28;20040;-63
2023/07/23 14:14:55;;;;;;;13.23;8.75;;;;;;;;;;5009653;28;20106;-63
2023/07/23 14:17:21;;;;;;;10.00;7.72;;;;;;;;;;5010324;28;20039;-62
2023/07/23 14:19:47;;;;;;;15.23;7.82;;;;;;;;;;5009835;28;20036;-63
2023/07/23 14:22:16;;;;;;;11.85;6.50;;;;;;;;;;5009605;28;20574;-63
2023/07/23 14:24:42;;;;;;;11.68;6.47;;;;;;;;;;5011089;28;20067;-63
2023/07/23 14:27:08;;;;;;;10.75;5.88;;;;;;;;;;5011056;28;20037;-64